sensor_id;sensor_type;location;lat;lon;timestamp;P1;durP1;ratioP1;P2;durP2;ratioP2
70169;SDS011;57543;45.442;9.212;2022-08-01T00:02:30;6.32;;;3.45;;
70169;SDS011;57543;45.442;9.212;2022-08-01T00:05:34;5.97;;;3.50;;
70169;SDS011;57543;45.442;9.212;2022-08-01T00:08:38;6.70;;;3.60;;
70169;SDS011;57543;45.442;9.212;2022-08-01T00:11:42;6.13;;;3.70;;
70169;SDS011;57543;45.442;9.212;2022-08-01T00:14:45;6.30;;;3.65;;
70169;SDS011;57543;45.442;9.212;2022-08-01T00:17:49;5.88;;;3.80;;
70169;SDS011;57543;45.442;9.212;2022-08-01T00:20:53;5.55;;;3.35;;
70169;SDS011;57543;45.442;9.212;2022-08-01T00:23:57;8.10;;;3.50;;
70169;SDS011;57543;45.442;9.212;2022-08-01T00:27:01;5.60;;;3.83;;
70169;SDS011;57543;45.442;9.212;2022-08-01T00:30:05;5.97;;;3.58;;
70169;SDS011;57543;45.442;9.212;2022-08-01T00:33:09;5.25;;;3.22;;
70169;SDS011;57543;45.442;9.212;2022-08-01T00:36:12;4.85;;;2.90;;
70169;SDS011;57543;45.442;9.212;2022-08-01T00:39:16;4.30;;;2.80;;
70169;SDS011;57543;45.442;9.212;2022-08-01T00:42:20;5.15;;;3.20;;
70169;SDS011;57543;45.442;9.212;2022-08-01T00:45:24;4.85;;;3.13;;
70169;SDS011;57543;45.442;9.212;2022-08-01T00:48:27;4.53;;;3.00;;
70169;SDS011;57543;45.442;9.212;2022-08-01T00:51:31;5.00;;;3.00;;
70169;SDS011;57543;45.442;9.212;2022-08-01T00:54:36;5.85;;;3.03;;
70169;SDS011;57543;45.442;9.212;2022-08-01T00:57:40;5.63;;;3.17;;
70169;SDS011;57543;45.442;9.212;2022-08-01T01:00:44;4.88;;;3.20;;
70169;SDS011;57543;45.442;9.212;2022-08-01T01:03:48;5.97;;;3.20;;
70169;SDS011;57543;45.442;9.212;2022-08-01T01:10:21;6.68;;;3.10;;
70169;SDS011;57543;45.442;9.212;2022-08-01T01:13:36;6.28;;;3.40;;
70169;SDS011;57543;45.442;9.212;2022-08-01T01:16:44;5.28;;;3.47;;
70169;SDS011;57543;45.442;9.212;2022-08-01T01:19:51;4.97;;;3.22;;
70169;SDS011;57543;45.442;9.212;2022-08-01T01:29:43;6.22;;;3.30;;
70169;SDS011;57543;45.442;9.212;2022-08-01T01:32:49;6.47;;;3.53;;
70169;SDS011;57543;45.442;9.212;2022-08-01T01:35:56;6.00;;;3.78;;
70169;SDS011;57543;45.442;9.212;2022-08-01T01:39:03;7.13;;;4.00;;
70169;SDS011;57543;45.442;9.212;2022-08-01T01:42:07;6.57;;;3.60;;
70169;SDS011;57543;45.442;9.212;2022-08-01T01:45:11;7.90;;;4.43;;
70169;SDS011;57543;45.442;9.212;2022-08-01T01:48:19;9.40;;;4.40;;
70169;SDS011;57543;45.442;9.212;2022-08-01T01:51:25;6.90;;;4.18;;
70169;SDS011;57543;45.442;9.212;2022-08-01T01:54:33;8.60;;;4.32;;
70169;SDS011;57543;45.442;9.212;2022-08-01T01:57:40;7.03;;;3.90;;
70169;SDS011;57543;45.442;9.212;2022-08-01T02:00:46;7.72;;;3.67;;
70169;SDS011;57543;45.442;9.212;2022-08-01T02:03:51;8.23;;;4.03;;
70169;SDS011;57543;45.442;9.212;2022-08-01T02:06:58;5.85;;;3.33;;
70169;SDS011;57543;45.442;9.212;2022-08-01T02:10:04;7.65;;;3.88;;
70169;SDS011;57543;45.442;9.212;2022-08-01T02:13:09;5.40;;;3.42;;
70169;SDS011;57543;45.442;9.212;2022-08-01T02:16:14;7.80;;;3.40;;
70169;SDS011;57543;45.442;9.212;2022-08-01T02:19:20;6.75;;;4.18;;
70169;SDS011;57543;45.442;9.212;2022-08-01T02:22:29;7.30;;;4.10;;
70169;SDS011;57543;45.442;9.212;2022-08-01T02:28:49;6.25;;;3.50;;
70169;SDS011;57543;45.442;9.212;2022-08-01T02:31:56;5.75;;;3.38;;
70169;SDS011;57543;45.442;9.212;2022-08-01T02:35:01;5.30;;;3.40;;
70169;SDS011;57543;45.442;9.212;2022-08-01T02:38:09;6.20;;;3.55;;
70169;SDS011;57543;45.442;9.212;2022-08-01T02:41:17;5.88;;;3.45;;
70169;SDS011;57543;45.442;9.212;2022-08-01T02:44:24;6.60;;;3.13;;
70169;SDS011;57543;45.442;9.212;2022-08-01T02:47:31;4.90;;;3.10;;
70169;SDS011;57543;45.442;9.212;2022-08-01T02:50:36;5.47;;;3.30;;
70169;SDS011;57543;45.442;9.212;2022-08-01T02:53:42;6.15;;;3.03;;
70169;SDS011;57543;45.442;9.212;2022-08-01T02:56:48;5.45;;;3.05;;
70169;SDS011;57543;45.442;9.212;2022-08-01T02:59:55;4.95;;;3.30;;
70169;SDS011;57543;45.442;9.212;2022-08-01T03:03:00;5.53;;;3.25;;
70169;SDS011;57543;45.442;9.212;2022-08-01T03:06:06;5.55;;;3.22;;
70169;SDS011;57543;45.442;9.212;2022-08-01T03:09:10;6.57;;;3.20;;
70169;SDS011;57543;45.442;9.212;2022-08-01T03:12:17;4.65;;;2.97;;
70169;SDS011;57543;45.442;9.212;2022-08-01T03:15:23;4.80;;;3.30;;
70169;SDS011;57543;45.442;9.212;2022-08-01T03:18:29;5.72;;;3.30;;
70169;SDS011;57543;45.442;9.212;2022-08-01T03:21:34;5.88;;;3.25;;
70169;SDS011;57543;45.442;9.212;2022-08-01T03:24:40;5.78;;;3.40;;
70169;SDS011;57543;45.442;9.212;2022-08-01T03:27:47;5.57;;;3.50;;
70169;SDS011;57543;45.442;9.212;2022-08-01T03:30:58;5.20;;;3.42;;
70169;SDS011;57543;45.442;9.212;2022-08-01T03:34:02;6.03;;;3.50;;
70169;SDS011;57543;45.442;9.212;2022-08-01T03:37:09;6.72;;;3.35;;
70169;SDS011;57543;45.442;9.212;2022-08-01T03:40:25;6.97;;;3.90;;
70169;SDS011;57543;45.442;9.212;2022-08-01T03:44:13;6.10;;;3.88;;
70169;SDS011;57543;45.442;9.212;2022-08-01T03:47:18;6.28;;;3.33;;
70169;SDS011;57543;45.442;9.212;2022-08-01T03:50:28;6.35;;;3.60;;
70169;SDS011;57543;45.442;9.212;2022-08-01T03:53:36;6.88;;;3.33;;
70169;SDS011;57543;45.442;9.212;2022-08-01T03:56:42;5.35;;;3.25;;
70169;SDS011;57543;45.442;9.212;2022-08-01T03:59:47;6.00;;;3.50;;
70169;SDS011;57543;45.442;9.212;2022-08-01T04:02:52;5.50;;;3.13;;
70169;SDS011;57543;45.442;9.212;2022-08-01T04:05:56;5.88;;;3.30;;
70169;SDS011;57543;45.442;9.212;2022-08-01T04:08:59;4.60;;;3.00;;
70169;SDS011;57543;45.442;9.212;2022-08-01T04:12:03;5.90;;;3.22;;
70169;SDS011;57543;45.442;9.212;2022-08-01T04:15:07;4.90;;;3.08;;
70169;SDS011;57543;45.442;9.212;2022-08-01T04:18:11;4.93;;;3.00;;
70169;SDS011;57543;45.442;9.212;2022-08-01T04:21:14;4.45;;;2.80;;
70169;SDS011;57543;45.442;9.212;2022-08-01T04:24:23;5.57;;;3.22;;
70169;SDS011;57543;45.442;9.212;2022-08-01T04:27:30;5.70;;;2.88;;
70169;SDS011;57543;45.442;9.212;2022-08-01T04:30:36;5.70;;;3.00;;
70169;SDS011;57543;45.442;9.212;2022-08-01T04:33:43;5.70;;;3.17;;
70169;SDS011;57543;45.442;9.212;2022-08-01T04:36:49;4.80;;;3.10;;
70169;SDS011;57543;45.442;9.212;2022-08-01T04:39:54;5.30;;;3.10;;
70169;SDS011;57543;45.442;9.212;2022-08-01T04:42:59;6.03;;;2.90;;
70169;SDS011;57543;45.442;9.212;2022-08-01T04:46:03;6.65;;;3.20;;
70169;SDS011;57543;45.442;9.212;2022-08-01T04:49:08;6.32;;;2.78;;
70169;SDS011;57543;45.442;9.212;2022-08-01T04:52:14;6.65;;;3.20;;
70169;SDS011;57543;45.442;9.212;2022-08-01T04:55:21;4.38;;;2.80;;
70169;SDS011;57543;45.442;9.212;2022-08-01T04:58:24;5.03;;;2.85;;
70169;SDS011;57543;45.442;9.212;2022-08-01T05:01:28;5.88;;;2.80;;
70169;SDS011;57543;45.442;9.212;2022-08-01T05:04:31;8.07;;;3.50;;
70169;SDS011;57543;45.442;9.212;2022-08-01T05:07:35;7.78;;;3.40;;
70169;SDS011;57543;45.442;9.212;2022-08-01T05:10:39;6.70;;;3.05;;
70169;SDS011;57543;45.442;9.212;2022-08-01T05:13:43;6.05;;;3.00;;
70169;SDS011;57543;45.442;9.212;2022-08-01T05:16:47;4.50;;;2.58;;
70169;SDS011;57543;45.442;9.212;2022-08-01T05:19:51;5.47;;;2.72;;
70169;SDS011;57543;45.442;9.212;2022-08-01T05:22:55;6.22;;;3.05;;
70169;SDS011;57543;45.442;9.212;2022-08-01T05:25:59;5.63;;;2.85;;
70169;SDS011;57543;45.442;9.212;2022-08-01T05:29:02;6.10;;;3.20;;
70169;SDS011;57543;45.442;9.212;2022-08-01T05:32:06;8.15;;;3.05;;
70169;SDS011;57543;45.442;9.212;2022-08-01T05:35:10;8.85;;;3.33;;
70169;SDS011;57543;45.442;9.212;2022-08-01T05:38:14;5.35;;;2.90;;
70169;SDS011;57543;45.442;9.212;2022-08-01T05:41:18;6.60;;;2.90;;
70169;SDS011;57543;45.442;9.212;2022-08-01T05:44:22;5.72;;;2.80;;
70169;SDS011;57543;45.442;9.212;2022-08-01T05:47:25;6.82;;;3.15;;
70169;SDS011;57543;45.442;9.212;2022-08-01T05:50:29;4.78;;;2.78;;
70169;SDS011;57543;45.442;9.212;2022-08-01T05:53:33;6.68;;;3.20;;
70169;SDS011;57543;45.442;9.212;2022-08-01T05:56:37;4.97;;;2.80;;
70169;SDS011;57543;45.442;9.212;2022-08-01T05:59:41;6.13;;;2.90;;
70169;SDS011;57543;45.442;9.212;2022-08-01T06:02:44;5.90;;;3.08;;
70169;SDS011;57543;45.442;9.212;2022-08-01T06:05:48;5.82;;;2.88;;
70169;SDS011;57543;45.442;9.212;2022-08-01T06:08:52;6.28;;;2.95;;
70169;SDS011;57543;45.442;9.212;2022-08-01T06:11:56;4.90;;;3.40;;
70169;SDS011;57543;45.442;9.212;2022-08-01T06:15:00;7.00;;;3.20;;
70169;SDS011;57543;45.442;9.212;2022-08-01T06:18:04;6.47;;;3.50;;
70169;SDS011;57543;45.442;9.212;2022-08-01T06:21:08;5.47;;;3.03;;
70169;SDS011;57543;45.442;9.212;2022-08-01T06:24:12;7.68;;;3.20;;
70169;SDS011;57543;45.442;9.212;2022-08-01T06:27:15;6.85;;;3.38;;
70169;SDS011;57543;45.442;9.212;2022-08-01T06:30:20;4.95;;;3.03;;
70169;SDS011;57543;45.442;9.212;2022-08-01T06:33:23;5.28;;;3.30;;
70169;SDS011;57543;45.442;9.212;2022-08-01T06:36:27;4.95;;;3.10;;
70169;SDS011;57543;45.442;9.212;2022-08-01T06:39:31;6.15;;;2.97;;
70169;SDS011;57543;45.442;9.212;2022-08-01T06:42:35;6.38;;;3.00;;
70169;SDS011;57543;45.442;9.212;2022-08-01T06:45:39;4.43;;;2.80;;
70169;SDS011;57543;45.442;9.212;2022-08-01T06:48:44;4.55;;;2.70;;
70169;SDS011;57543;45.442;9.212;2022-08-01T06:51:47;7.82;;;3.10;;
70169;SDS011;57543;45.442;9.212;2022-08-01T06:54:51;5.22;;;2.75;;
70169;SDS011;57543;45.442;9.212;2022-08-01T06:57:55;5.78;;;3.15;;
70169;SDS011;57543;45.442;9.212;2022-08-01T07:00:59;4.72;;;2.92;;
70169;SDS011;57543;45.442;9.212;2022-08-01T07:04:03;6.03;;;3.10;;
70169;SDS011;57543;45.442;9.212;2022-08-01T07:07:06;4.32;;;2.72;;
70169;SDS011;57543;45.442;9.212;2022-08-01T07:10:10;5.60;;;3.30;;
70169;SDS011;57543;45.442;9.212;2022-08-01T07:13:14;5.13;;;2.67;;
70169;SDS011;57543;45.442;9.212;2022-08-01T07:16:23;6.90;;;3.40;;
70169;SDS011;57543;45.442;9.212;2022-08-01T07:19:27;6.03;;;3.22;;
70169;SDS011;57543;45.442;9.212;2022-08-01T07:22:31;6.20;;;3.60;;
70169;SDS011;57543;45.442;9.212;2022-08-01T07:25:35;5.60;;;3.10;;
70169;SDS011;57543;45.442;9.212;2022-08-01T07:28:39;5.60;;;3.53;;
70169;SDS011;57543;45.442;9.212;2022-08-01T07:31:42;8.95;;;3.50;;
70169;SDS011;57543;45.442;9.212;2022-08-01T07:34:46;5.45;;;3.45;;
70169;SDS011;57543;45.442;9.212;2022-08-01T07:37:50;7.47;;;3.80;;
70169;SDS011;57543;45.442;9.212;2022-08-01T07:40:54;8.02;;;3.97;;
70169;SDS011;57543;45.442;9.212;2022-08-01T07:43:58;7.78;;;3.75;;
70169;SDS011;57543;45.442;9.212;2022-08-01T07:47:02;8.40;;;4.20;;
70169;SDS011;57543;45.442;9.212;2022-08-01T07:50:06;6.80;;;4.00;;
70169;SDS011;57543;45.442;9.212;2022-08-01T07:53:10;9.27;;;3.90;;
70169;SDS011;57543;45.442;9.212;2022-08-01T07:56:14;6.47;;;3.90;;
70169;SDS011;57543;45.442;9.212;2022-08-01T07:59:17;8.23;;;5.13;;
70169;SDS011;57543;45.442;9.212;2022-08-01T08:02:25;10.20;;;4.60;;
70169;SDS011;57543;45.442;9.212;2022-08-01T08:05:29;8.23;;;5.00;;
70169;SDS011;57543;45.442;9.212;2022-08-01T08:08:33;8.52;;;4.75;;
70169;SDS011;57543;45.442;9.212;2022-08-01T08:11:38;8.50;;;4.55;;
70169;SDS011;57543;45.442;9.212;2022-08-01T08:14:42;10.75;;;5.93;;
70169;SDS011;57543;45.442;9.212;2022-08-01T08:17:45;10.00;;;4.97;;
70169;SDS011;57543;45.442;9.212;2022-08-01T08:20:49;8.05;;;4.53;;
70169;SDS011;57543;45.442;9.212;2022-08-01T08:23:53;8.90;;;4.80;;
70169;SDS011;57543;45.442;9.212;2022-08-01T08:27:16;7.38;;;4.88;;
70169;SDS011;57543;45.442;9.212;2022-08-01T08:30:20;8.07;;;4.00;;
70169;SDS011;57543;45.442;9.212;2022-08-01T08:33:23;8.43;;;4.93;;
70169;SDS011;57543;45.442;9.212;2022-08-01T08:36:27;9.93;;;4.60;;
70169;SDS011;57543;45.442;9.212;2022-08-01T08:39:30;7.32;;;5.15;;
70169;SDS011;57543;45.442;9.212;2022-08-01T08:42:34;9.60;;;5.68;;
70169;SDS011;57543;45.442;9.212;2022-08-01T08:45:38;6.53;;;4.20;;
70169;SDS011;57543;45.442;9.212;2022-08-01T08:48:42;6.78;;;3.42;;
70169;SDS011;57543;45.442;9.212;2022-08-01T08:51:50;7.53;;;4.65;;
70169;SDS011;57543;45.442;9.212;2022-08-01T08:54:55;8.82;;;4.60;;
70169;SDS011;57543;45.442;9.212;2022-08-01T08:57:59;9.15;;;4.57;;
70169;SDS011;57543;45.442;9.212;2022-08-01T09:01:06;7.50;;;3.90;;
70169;SDS011;57543;45.442;9.212;2022-08-01T09:04:11;9.27;;;4.32;;
70169;SDS011;57543;45.442;9.212;2022-08-01T09:07:15;9.73;;;4.65;;
70169;SDS011;57543;45.442;9.212;2022-08-01T09:10:19;8.15;;;4.10;;
70169;SDS011;57543;45.442;9.212;2022-08-01T09:13:23;9.65;;;5.25;;
70169;SDS011;57543;45.442;9.212;2022-08-01T09:16:27;6.78;;;3.88;;
70169;SDS011;57543;45.442;9.212;2022-08-01T09:19:38;8.30;;;3.67;;
70169;SDS011;57543;45.442;9.212;2022-08-01T09:22:43;7.70;;;3.88;;
70169;SDS011;57543;45.442;9.212;2022-08-01T09:25:50;11.48;;;5.30;;
70169;SDS011;57543;45.442;9.212;2022-08-01T09:28:55;6.90;;;3.72;;
70169;SDS011;57543;45.442;9.212;2022-08-01T09:31:59;9.20;;;4.38;;
70169;SDS011;57543;45.442;9.212;2022-08-01T09:38:41;9.98;;;3.90;;
70169;SDS011;57543;45.442;9.212;2022-08-01T09:41:46;7.40;;;3.60;;
70169;SDS011;57543;45.442;9.212;2022-08-01T09:44:50;6.63;;;3.55;;
70169;SDS011;57543;45.442;9.212;2022-08-01T09:47:54;6.80;;;3.53;;
70169;SDS011;57543;45.442;9.212;2022-08-01T09:50:58;7.18;;;3.55;;
70169;SDS011;57543;45.442;9.212;2022-08-01T09:54:03;8.40;;;3.17;;
70169;SDS011;57543;45.442;9.212;2022-08-01T09:57:12;10.45;;;3.80;;
70169;SDS011;57543;45.442;9.212;2022-08-01T10:00:20;7.00;;;3.65;;
70169;SDS011;57543;45.442;9.212;2022-08-01T10:03:25;6.78;;;3.42;;
70169;SDS011;57543;45.442;9.212;2022-08-01T10:06:30;8.55;;;3.72;;
70169;SDS011;57543;45.442;9.212;2022-08-01T10:09:35;6.18;;;3.15;;
70169;SDS011;57543;45.442;9.212;2022-08-01T10:12:40;7.50;;;3.10;;
70169;SDS011;57543;45.442;9.212;2022-08-01T10:15:44;7.13;;;3.25;;
70169;SDS011;57543;45.442;9.212;2022-08-01T10:18:48;5.53;;;2.72;;
70169;SDS011;57543;45.442;9.212;2022-08-01T10:21:52;4.57;;;3.10;;
70169;SDS011;57543;45.442;9.212;2022-08-01T10:24:58;5.22;;;3.05;;
70169;SDS011;57543;45.442;9.212;2022-08-01T10:28:10;5.93;;;3.05;;
70169;SDS011;57543;45.442;9.212;2022-08-01T10:31:18;5.53;;;3.13;;
70169;SDS011;57543;45.442;9.212;2022-08-01T10:34:22;8.00;;;3.30;;
70169;SDS011;57543;45.442;9.212;2022-08-01T10:37:26;8.50;;;3.47;;
70169;SDS011;57543;45.442;9.212;2022-08-01T10:40:30;8.38;;;3.60;;
70169;SDS011;57543;45.442;9.212;2022-08-01T10:43:35;7.50;;;3.80;;
70169;SDS011;57543;45.442;9.212;2022-08-01T10:46:39;7.25;;;3.22;;
70169;SDS011;57543;45.442;9.212;2022-08-01T10:49:51;10.88;;;4.05;;
70169;SDS011;57543;45.442;9.212;2022-08-01T10:53:12;7.57;;;3.20;;
70169;SDS011;57543;45.442;9.212;2022-08-01T10:56:18;6.63;;;2.80;;
70169;SDS011;57543;45.442;9.212;2022-08-01T10:59:23;5.53;;;2.70;;
70169;SDS011;57543;45.442;9.212;2022-08-01T11:02:29;5.07;;;2.47;;
70169;SDS011;57543;45.442;9.212;2022-08-01T11:05:35;6.38;;;2.40;;
70169;SDS011;57543;45.442;9.212;2022-08-01T11:08:39;6.88;;;2.40;;
70169;SDS011;57543;45.442;9.212;2022-08-01T11:24:56;5.65;;;2.47;;
70169;SDS011;57543;45.442;9.212;2022-08-01T11:31:26;4.93;;;2.70;;
70169;SDS011;57543;45.442;9.212;2022-08-01T11:41:33;7.70;;;3.20;;
70169;SDS011;57543;45.442;9.212;2022-08-01T11:44:48;8.07;;;2.72;;
70169;SDS011;57543;45.442;9.212;2022-08-01T11:47:53;5.45;;;2.60;;
70169;SDS011;57543;45.442;9.212;2022-08-01T11:51:18;6.47;;;3.00;;
70169;SDS011;57543;45.442;9.212;2022-08-01T11:54:24;7.78;;;2.80;;
70169;SDS011;57543;45.442;9.212;2022-08-01T11:57:31;4.93;;;2.80;;
70169;SDS011;57543;45.442;9.212;2022-08-01T12:00:38;5.63;;;2.67;;
70169;SDS011;57543;45.442;9.212;2022-08-01T12:03:42;6.50;;;2.58;;
70169;SDS011;57543;45.442;9.212;2022-08-01T12:06:46;4.63;;;2.47;;
70169;SDS011;57543;45.442;9.212;2022-08-01T12:09:56;4.10;;;2.67;;
70169;SDS011;57543;45.442;9.212;2022-08-01T12:13:08;4.93;;;2.80;;
70169;SDS011;57543;45.442;9.212;2022-08-01T12:16:12;3.83;;;2.45;;
70169;SDS011;57543;45.442;9.212;2022-08-01T12:19:18;4.35;;;2.50;;
70169;SDS011;57543;45.442;9.212;2022-08-01T12:22:26;4.53;;;2.47;;
70169;SDS011;57543;45.442;9.212;2022-08-01T12:25:30;6.00;;;2.90;;
70169;SDS011;57543;45.442;9.212;2022-08-01T12:28:38;4.40;;;2.50;;
70169;SDS011;57543;45.442;9.212;2022-08-01T12:31:43;4.10;;;2.50;;
70169;SDS011;57543;45.442;9.212;2022-08-01T12:34:47;4.63;;;2.50;;
70169;SDS011;57543;45.442;9.212;2022-08-01T12:37:52;4.05;;;2.30;;
70169;SDS011;57543;45.442;9.212;2022-08-01T12:40:59;4.35;;;2.38;;
70169;SDS011;57543;45.442;9.212;2022-08-01T12:44:03;5.07;;;2.50;;
70169;SDS011;57543;45.442;9.212;2022-08-01T12:47:18;4.18;;;2.50;;
70169;SDS011;57543;45.442;9.212;2022-08-01T12:50:25;4.38;;;2.53;;
70169;SDS011;57543;45.442;9.212;2022-08-01T12:53:34;4.13;;;2.55;;
70169;SDS011;57543;45.442;9.212;2022-08-01T12:56:38;3.92;;;2.35;;
70169;SDS011;57543;45.442;9.212;2022-08-01T12:59:42;4.85;;;2.88;;
70169;SDS011;57543;45.442;9.212;2022-08-01T13:02:46;5.50;;;2.63;;
70169;SDS011;57543;45.442;9.212;2022-08-01T13:09:05;5.25;;;2.50;;
70169;SDS011;57543;45.442;9.212;2022-08-01T13:12:29;3.78;;;2.40;;
70169;SDS011;57543;45.442;9.212;2022-08-01T13:15:33;4.20;;;2.38;;
70169;SDS011;57543;45.442;9.212;2022-08-01T13:18:39;6.00;;;2.60;;
70169;SDS011;57543;45.442;9.212;2022-08-01T13:21:53;6.75;;;2.70;;
70169;SDS011;57543;45.442;9.212;2022-08-01T13:25:14;5.20;;;2.40;;
70169;SDS011;57543;45.442;9.212;2022-08-01T13:28:23;3.28;;;2.08;;
70169;SDS011;57543;45.442;9.212;2022-08-01T13:31:32;3.65;;;2.15;;
70169;SDS011;57543;45.442;9.212;2022-08-01T13:34:37;4.13;;;2.40;;
70169;SDS011;57543;45.442;9.212;2022-08-01T13:37:41;5.05;;;1.98;;
70169;SDS011;57543;45.442;9.212;2022-08-01T13:40:45;4.55;;;2.00;;
70169;SDS011;57543;45.442;9.212;2022-08-01T13:43:49;4.13;;;2.30;;
70169;SDS011;57543;45.442;9.212;2022-08-01T13:46:53;3.25;;;2.17;;
70169;SDS011;57543;45.442;9.212;2022-08-01T13:49:56;3.60;;;2.20;;
70169;SDS011;57543;45.442;9.212;2022-08-01T13:53:03;5.57;;;2.20;;
70169;SDS011;57543;45.442;9.212;2022-08-01T13:56:07;4.45;;;1.98;;
70169;SDS011;57543;45.442;9.212;2022-08-01T13:59:11;3.35;;;1.90;;
70169;SDS011;57543;45.442;9.212;2022-08-01T14:02:15;3.22;;;1.77;;
70169;SDS011;57543;45.442;9.212;2022-08-01T14:05:19;3.38;;;1.80;;
70169;SDS011;57543;45.442;9.212;2022-08-01T14:08:23;5.22;;;1.98;;
70169;SDS011;57543;45.442;9.212;2022-08-01T14:11:27;4.53;;;2.20;;
70169;SDS011;57543;45.442;9.212;2022-08-01T14:14:31;4.28;;;1.90;;
70169;SDS011;57543;45.442;9.212;2022-08-01T14:17:35;3.85;;;1.98;;
70169;SDS011;57543;45.442;9.212;2022-08-01T14:20:39;11.05;;;2.00;;
70169;SDS011;57543;45.442;9.212;2022-08-01T14:23:43;5.97;;;1.70;;
70169;SDS011;57543;45.442;9.212;2022-08-01T14:26:46;4.13;;;1.85;;
70169;SDS011;57543;45.442;9.212;2022-08-01T14:29:50;3.63;;;1.88;;
70169;SDS011;57543;45.442;9.212;2022-08-01T14:32:53;6.55;;;2.08;;
70169;SDS011;57543;45.442;9.212;2022-08-01T14:35:57;3.55;;;2.10;;
70169;SDS011;57543;45.442;9.212;2022-08-01T14:39:01;3.55;;;2.03;;
70169;SDS011;57543;45.442;9.212;2022-08-01T14:42:04;3.35;;;2.00;;
70169;SDS011;57543;45.442;9.212;2022-08-01T14:45:08;3.83;;;2.00;;
70169;SDS011;57543;45.442;9.212;2022-08-01T14:48:13;4.35;;;1.90;;
70169;SDS011;57543;45.442;9.212;2022-08-01T14:51:17;4.22;;;2.00;;
70169;SDS011;57543;45.442;9.212;2022-08-01T14:54:20;3.60;;;1.80;;
70169;SDS011;57543;45.442;9.212;2022-08-01T14:57:24;4.53;;;2.05;;
70169;SDS011;57543;45.442;9.212;2022-08-01T15:00:28;4.15;;;2.03;;
70169;SDS011;57543;45.442;9.212;2022-08-01T15:03:32;3.40;;;2.10;;
70169;SDS011;57543;45.442;9.212;2022-08-01T15:06:35;4.60;;;2.30;;
70169;SDS011;57543;45.442;9.212;2022-08-01T15:09:39;6.03;;;3.97;;
70169;SDS011;57543;45.442;9.212;2022-08-01T15:12:43;4.85;;;2.20;;
70169;SDS011;57543;45.442;9.212;2022-08-01T15:15:47;3.47;;;2.10;;
70169;SDS011;57543;45.442;9.212;2022-08-01T15:18:51;3.05;;;1.80;;
70169;SDS011;57543;45.442;9.212;2022-08-01T15:21:54;3.30;;;1.90;;
70169;SDS011;57543;45.442;9.212;2022-08-01T15:24:59;3.10;;;1.80;;
70169;SDS011;57543;45.442;9.212;2022-08-01T15:28:03;4.05;;;2.08;;
70169;SDS011;57543;45.442;9.212;2022-08-01T15:31:07;4.43;;;1.90;;
70169;SDS011;57543;45.442;9.212;2022-08-01T15:34:11;3.92;;;1.63;;
70169;SDS011;57543;45.442;9.212;2022-08-01T15:37:15;3.67;;;2.10;;
70169;SDS011;57543;45.442;9.212;2022-08-01T15:40:18;3.38;;;2.10;;
70169;SDS011;57543;45.442;9.212;2022-08-01T15:43:22;3.30;;;1.88;;
70169;SDS011;57543;45.442;9.212;2022-08-01T15:46:26;4.28;;;1.90;;
70169;SDS011;57543;45.442;9.212;2022-08-01T15:49:30;3.65;;;1.98;;
70169;SDS011;57543;45.442;9.212;2022-08-01T15:52:34;3.20;;;1.98;;
70169;SDS011;57543;45.442;9.212;2022-08-01T15:55:38;3.80;;;2.10;;
70169;SDS011;57543;45.442;9.212;2022-08-01T15:58:41;4.47;;;1.85;;
70169;SDS011;57543;45.442;9.212;2022-08-01T16:01:45;3.45;;;1.75;;
70169;SDS011;57543;45.442;9.212;2022-08-01T16:04:51;3.28;;;1.80;;
70169;SDS011;57543;45.442;9.212;2022-08-01T16:07:55;2.95;;;1.63;;
70169;SDS011;57543;45.442;9.212;2022-08-01T16:10:59;2.88;;;1.40;;
70169;SDS011;57543;45.442;9.212;2022-08-01T16:14:03;2.80;;;1.60;;
70169;SDS011;57543;45.442;9.212;2022-08-01T16:17:07;3.50;;;1.70;;
70169;SDS011;57543;45.442;9.212;2022-08-01T16:20:11;3.67;;;1.60;;
70169;SDS011;57543;45.442;9.212;2022-08-01T16:23:14;3.97;;;1.88;;
70169;SDS011;57543;45.442;9.212;2022-08-01T16:26:18;4.32;;;1.42;;
70169;SDS011;57543;45.442;9.212;2022-08-01T16:29:21;3.08;;;1.58;;
70169;SDS011;57543;45.442;9.212;2022-08-01T16:32:25;3.17;;;1.73;;
70169;SDS011;57543;45.442;9.212;2022-08-01T16:35:29;3.17;;;1.80;;
70169;SDS011;57543;45.442;9.212;2022-08-01T16:38:33;3.47;;;1.98;;
70169;SDS011;57543;45.442;9.212;2022-08-01T16:41:37;3.17;;;1.80;;
70169;SDS011;57543;45.442;9.212;2022-08-01T16:44:41;2.80;;;1.50;;
70169;SDS011;57543;45.442;9.212;2022-08-01T16:47:47;3.20;;;1.60;;
70169;SDS011;57543;45.442;9.212;2022-08-01T16:50:51;3.03;;;1.52;;
70169;SDS011;57543;45.442;9.212;2022-08-01T16:53:56;4.00;;;1.80;;
70169;SDS011;57543;45.442;9.212;2022-08-01T16:56:59;3.75;;;1.80;;
70169;SDS011;57543;45.442;9.212;2022-08-01T17:00:08;4.53;;;1.73;;
70169;SDS011;57543;45.442;9.212;2022-08-01T17:03:13;3.00;;;1.50;;
70169;SDS011;57543;45.442;9.212;2022-08-01T17:06:16;3.20;;;1.50;;
70169;SDS011;57543;45.442;9.212;2022-08-01T17:09:21;3.08;;;1.40;;
70169;SDS011;57543;45.442;9.212;2022-08-01T17:12:24;3.78;;;1.63;;
70169;SDS011;57543;45.442;9.212;2022-08-01T17:15:28;4.25;;;2.00;;
70169;SDS011;57543;45.442;9.212;2022-08-01T17:18:32;4.53;;;1.60;;
70169;SDS011;57543;45.442;9.212;2022-08-01T17:21:36;3.60;;;1.92;;
70169;SDS011;57543;45.442;9.212;2022-08-01T17:24:40;3.00;;;1.77;;
70169;SDS011;57543;45.442;9.212;2022-08-01T17:27:44;3.78;;;1.80;;
70169;SDS011;57543;45.442;9.212;2022-08-01T17:30:47;3.45;;;1.80;;
70169;SDS011;57543;45.442;9.212;2022-08-01T17:33:51;4.03;;;2.05;;
70169;SDS011;57543;45.442;9.212;2022-08-01T17:36:55;3.75;;;2.17;;
70169;SDS011;57543;45.442;9.212;2022-08-01T17:39:59;3.55;;;1.70;;
70169;SDS011;57543;45.442;9.212;2022-08-01T17:43:03;6.80;;;1.80;;
70169;SDS011;57543;45.442;9.212;2022-08-01T17:46:07;3.88;;;1.90;;
70169;SDS011;57543;45.442;9.212;2022-08-01T17:49:11;3.60;;;2.20;;
70169;SDS011;57543;45.442;9.212;2022-08-01T17:52:15;6.47;;;2.08;;
70169;SDS011;57543;45.442;9.212;2022-08-01T17:55:19;4.47;;;2.00;;
70169;SDS011;57543;45.442;9.212;2022-08-01T17:58:23;3.97;;;2.00;;
70169;SDS011;57543;45.442;9.212;2022-08-01T18:01:28;5.05;;;1.80;;
70169;SDS011;57543;45.442;9.212;2022-08-01T18:04:32;5.45;;;1.98;;
70169;SDS011;57543;45.442;9.212;2022-08-01T18:07:36;3.72;;;2.20;;
70169;SDS011;57543;45.442;9.212;2022-08-01T18:10:39;3.72;;;1.90;;
70169;SDS011;57543;45.442;9.212;2022-08-01T18:13:43;4.45;;;1.85;;
70169;SDS011;57543;45.442;9.212;2022-08-01T18:16:47;3.15;;;1.92;;
70169;SDS011;57543;45.442;9.212;2022-08-01T18:19:51;3.90;;;2.15;;
70169;SDS011;57543;45.442;9.212;2022-08-01T18:22:55;3.80;;;2.08;;
70169;SDS011;57543;45.442;9.212;2022-08-01T18:25:59;4.70;;;2.08;;
70169;SDS011;57543;45.442;9.212;2022-08-01T18:29:04;4.45;;;2.25;;
70169;SDS011;57543;45.442;9.212;2022-08-01T18:32:09;4.15;;;2.65;;
70169;SDS011;57543;45.442;9.212;2022-08-01T18:35:13;4.93;;;2.30;;
70169;SDS011;57543;45.442;9.212;2022-08-01T18:38:17;5.22;;;2.15;;
70169;SDS011;57543;45.442;9.212;2022-08-01T18:41:21;4.22;;;2.60;;
70169;SDS011;57543;45.442;9.212;2022-08-01T18:44:25;5.35;;;2.40;;
70169;SDS011;57543;45.442;9.212;2022-08-01T18:47:32;4.40;;;2.40;;
70169;SDS011;57543;45.442;9.212;2022-08-01T18:50:36;5.07;;;2.42;;
70169;SDS011;57543;45.442;9.212;2022-08-01T18:53:39;5.28;;;2.20;;
70169;SDS011;57543;45.442;9.212;2022-08-01T18:56:44;4.85;;;2.60;;
70169;SDS011;57543;45.442;9.212;2022-08-01T18:59:48;5.07;;;2.20;;
70169;SDS011;57543;45.442;9.212;2022-08-01T19:02:51;5.30;;;2.33;;
70169;SDS011;57543;45.442;9.212;2022-08-01T19:05:56;4.82;;;2.58;;
70169;SDS011;57543;45.442;9.212;2022-08-01T19:09:00;4.82;;;2.60;;
70169;SDS011;57543;45.442;9.212;2022-08-01T19:12:05;6.40;;;3.00;;
70169;SDS011;57543;45.442;9.212;2022-08-01T19:15:09;4.78;;;2.70;;
70169;SDS011;57543;45.442;9.212;2022-08-01T19:18:13;4.90;;;2.47;;
70169;SDS011;57543;45.442;9.212;2022-08-01T19:21:18;4.30;;;2.40;;